createdAt,value
2022-12-04T00:00:50.640Z,53.22
2022-12-04T00:03:18.230Z,56.35
2022-12-04T00:05:45.715Z,58.90
2022-12-04T00:08:13.183Z,54.25
2022-12-04T00:10:43.140Z,43.75
2022-12-04T00:15:43.779Z,49.13
2022-12-04T00:18:11.181Z,58.17
2022-12-04T00:20:40.428Z,50.05
2022-12-04T00:23:07.947Z,62.55
2022-12-04T00:25:40.740Z,100.57
2022-12-04T00:28:08.745Z,82.72
2022-12-04T00:30:36.263Z,49.40
2022-12-04T00:33:05.125Z,37.50
2022-12-04T00:35:32.538Z,54.58
2022-12-04T00:37:59.916Z,89.28
2022-12-04T00:40:27.656Z,71.75
2022-12-04T00:42:55.114Z,76.50
2022-12-04T00:45:22.605Z,92.78
2022-12-04T00:47:50.094Z,47.10
2022-12-04T00:50:18.853Z,50.88
2022-12-04T00:52:46.229Z,59.42
2022-12-04T00:55:13.636Z,51.72
2022-12-04T00:57:41.029Z,43.67
2022-12-04T01:00:09.067Z,49.78
2022-12-04T01:02:36.625Z,73.93
2022-12-04T01:05:04.138Z,50.50
2022-12-04T01:07:32.918Z,67.90
2022-12-04T01:10:00.315Z,54.75
2022-12-04T01:12:27.777Z,67.72
2022-12-04T01:14:55.156Z,62.15
2022-12-04T01:17:22.523Z,65.30
2022-12-04T01:19:49.992Z,58.13
2022-12-04T01:22:17.542Z,79.05
2022-12-04T01:24:46.272Z,56.28
2022-12-04T01:27:13.711Z,46.17
2022-12-04T01:29:41.266Z,112.43
2022-12-04T01:32:08.680Z,48.22
2022-12-04T01:34:37.004Z,52.00
2022-12-04T01:37:04.479Z,98.90
2022-12-04T01:39:31.844Z,48.45
2022-12-04T01:42:00.587Z,59.75
2022-12-04T01:44:28.199Z,90.80
2022-12-04T01:46:56.377Z,73.90
2022-12-04T01:49:26.059Z,70.88
2022-12-04T01:51:54.951Z,71.70
2022-12-04T01:54:28.554Z,64.10
2022-12-04T01:56:59.246Z,69.68
2022-12-04T01:59:28.852Z,59.40
2022-12-04T02:01:58.333Z,69.78
2022-12-04T02:04:25.853Z,84.93
2022-12-04T02:06:53.241Z,63.35
2022-12-04T02:09:26.876Z,58.60
2022-12-04T02:11:58.153Z,62.33
2022-12-04T02:14:32.160Z,52.75
2022-12-04T02:17:06.454Z,99.68
2022-12-04T02:19:50.709Z,103.10
2022-12-04T02:22:25.652Z,57.38
2022-12-04T02:24:54.534Z,97.15
2022-12-04T02:27:30.052Z,78.68
2022-12-04T02:30:01.364Z,64.85
2022-12-04T02:32:33.210Z,50.35
2022-12-04T02:35:03.042Z,75.75
2022-12-04T02:40:00.666Z,49.25
2022-12-04T02:42:32.071Z,49.65
2022-12-04T02:45:02.328Z,65.28
2022-12-04T02:47:30.328Z,60.58
2022-12-04T02:49:59.462Z,62.65
2022-12-04T02:52:30.221Z,62.97
2022-12-04T02:55:01.082Z,85.32
2022-12-04T02:57:32.708Z,65.15
2022-12-04T03:02:30.400Z,62.30
2022-12-04T03:04:59.605Z,60.72
2022-12-04T03:07:29.006Z,41.95
2022-12-04T03:09:57.699Z,41.00
2022-12-04T03:12:27.646Z,58.67
2022-12-04T03:14:57.320Z,56.03
2022-12-04T03:17:26.164Z,72.15
2022-12-04T03:19:58.194Z,50.92
2022-12-04T03:22:27.254Z,48.47
2022-12-04T03:24:55.581Z,42.97
2022-12-04T03:27:25.695Z,57.47
2022-12-04T03:29:55.538Z,55.20
2022-12-04T03:32:27.294Z,48.78
2022-12-04T03:34:59.887Z,71.28
2022-12-04T03:37:29.638Z,39.42
2022-12-04T03:39:59.558Z,63.60
2022-12-04T03:44:58.107Z,52.00
2022-12-04T03:47:27.473Z,56.38
2022-12-04T03:50:00.215Z,53.10
2022-12-04T03:52:29.872Z,71.18
2022-12-04T03:54:58.903Z,45.42
2022-12-04T03:57:28.445Z,52.80
2022-12-04T03:59:58.907Z,52.78
2022-12-04T04:02:29.456Z,49.78
2022-12-04T04:04:59.045Z,41.60
2022-12-04T04:07:35.125Z,54.72
2022-12-04T04:10:05.741Z,53.25
2022-12-04T04:12:36.497Z,50.65
2022-12-04T04:15:24.863Z,53.85
2022-12-04T04:18:09.908Z,49.20
2022-12-04T04:20:59.766Z,49.45
2022-12-04T04:26:12.965Z,53.42
2022-12-04T04:28:41.351Z,50.15
2022-12-04T04:31:12.432Z,52.53
2022-12-04T04:33:44.037Z,55.05
2022-12-04T04:36:15.429Z,57.92
2022-12-04T04:38:46.212Z,57.38
2022-12-04T04:41:17.120Z,55.65
2022-12-04T04:43:47.568Z,57.58
2022-12-04T04:46:17.887Z,65.80
2022-12-04T04:48:47.525Z,51.05
2022-12-04T04:51:16.383Z,61.20
2022-12-04T04:53:46.407Z,54.42
2022-12-04T04:56:14.138Z,60.53
2022-12-04T04:58:42.380Z,60.80
2022-12-04T05:01:10.905Z,63.67
2022-12-04T05:03:38.360Z,67.18
2022-12-04T05:06:06.253Z,54.42
2022-12-04T05:08:35.046Z,53.42
2022-12-04T05:11:02.471Z,51.58
2022-12-04T05:13:30.515Z,43.47
2022-12-04T05:15:58.520Z,46.25
2022-12-04T05:18:26.090Z,69.75
2022-12-04T05:20:52.507Z,72.43
2022-12-04T05:23:20.022Z,56.35
2022-12-04T05:25:48.776Z,60.10
2022-12-04T05:28:16.377Z,55.75
2022-12-04T05:30:43.804Z,54.55
2022-12-04T05:33:11.255Z,52.78
2022-12-04T05:35:38.649Z,52.53
2022-12-04T05:38:06.053Z,54.70
2022-12-04T05:40:33.437Z,55.53
2022-12-04T05:43:02.162Z,59.70
2022-12-04T05:45:29.528Z,58.58
2022-12-04T05:47:56.914Z,58.42
2022-12-04T05:50:24.318Z,53.15
2022-12-04T05:52:51.700Z,50.78
2022-12-04T05:55:19.068Z,40.42
2022-12-04T05:57:46.483Z,56.75
2022-12-04T06:00:16.482Z,55.80
2022-12-04T06:02:43.922Z,55.33
2022-12-04T06:05:11.331Z,26.80
2022-12-04T06:07:38.738Z,48.53
2022-12-04T06:10:06.991Z,57.63
2022-12-04T06:12:34.394Z,48.85
2022-12-04T06:15:01.768Z,46.17
2022-12-04T06:17:30.629Z,51.00
2022-12-04T06:19:58.741Z,52.83
2022-12-04T06:22:26.407Z,52.58
2022-12-04T06:24:53.870Z,51.38
2022-12-04T06:27:28.944Z,75.65
2022-12-04T06:29:56.895Z,51.00
2022-12-04T06:32:24.453Z,64.45
2022-12-04T06:34:53.651Z,51.90
2022-12-04T06:37:21.450Z,62.03
2022-12-04T06:39:48.950Z,53.83
2022-12-04T06:42:16.325Z,54.40
2022-12-04T06:44:43.725Z,48.15
2022-12-04T06:47:11.167Z,52.65
2022-12-04T06:49:38.620Z,50.17
2022-12-04T06:52:07.448Z,51.58
2022-12-04T06:54:34.906Z,50.50
2022-12-04T06:57:02.336Z,52.08
2022-12-04T06:59:29.758Z,48.22
2022-12-04T07:01:57.321Z,49.15
2022-12-04T07:04:24.730Z,48.28
2022-12-04T07:06:52.112Z,47.55
2022-12-04T07:09:20.876Z,46.55
2022-12-04T07:11:48.252Z,44.95
2022-12-04T07:14:15.676Z,41.85
2022-12-04T07:16:43.524Z,46.38
2022-12-04T07:19:11.402Z,49.95
2022-12-04T07:21:38.873Z,52.40
2022-12-04T07:24:06.514Z,46.75
2022-12-04T07:26:35.457Z,49.45
2022-12-04T07:29:02.840Z,43.77
2022-12-04T07:31:30.520Z,46.92
2022-12-04T07:33:58.935Z,55.05
2022-12-04T07:36:27.012Z,47.25
2022-12-04T07:38:55.547Z,49.10
2022-12-04T07:41:23.138Z,48.40
2022-12-04T07:43:52.080Z,74.53
2022-12-04T07:46:20.579Z,63.87
2022-12-04T07:48:48.015Z,57.92
2022-12-04T07:51:16.058Z,57.05
2022-12-04T07:53:44.057Z,56.78
2022-12-04T07:56:12.147Z,48.30
2022-12-04T07:58:39.546Z,52.58
2022-12-04T08:01:09.732Z,50.22
2022-12-04T08:03:40.843Z,54.72
2022-12-04T08:06:11.098Z,53.33
2022-12-04T08:08:38.760Z,47.97
2022-12-04T08:11:06.940Z,56.88
2022-12-04T08:13:34.330Z,59.30
2022-12-04T08:16:02.179Z,47.30
2022-12-04T08:18:30.971Z,56.92
2022-12-04T08:21:03.782Z,55.95
2022-12-04T08:23:31.284Z,53.92
2022-12-04T08:25:59.308Z,50.90
2022-12-04T08:28:26.755Z,67.93
2022-12-04T08:30:54.191Z,51.65
2022-12-04T08:33:21.735Z,51.83
2022-12-04T08:35:50.425Z,56.45
2022-12-04T08:38:17.800Z,59.35
2022-12-04T08:40:45.172Z,60.10
2022-12-04T08:43:12.532Z,55.30
2022-12-04T08:45:40.458Z,53.83
2022-12-04T08:48:07.912Z,43.65
2022-12-04T08:50:35.308Z,46.72
2022-12-04T08:53:04.098Z,41.70
2022-12-04T08:55:31.631Z,51.80
2022-12-04T08:57:58.998Z,42.45
2022-12-04T09:00:27.201Z,50.83
2022-12-04T09:02:54.641Z,44.60
2022-12-04T09:05:22.285Z,46.92
2022-12-04T09:07:49.706Z,38.15
2022-12-04T09:10:18.730Z,48.65
2022-12-04T09:12:46.115Z,51.13
2022-12-04T09:15:13.481Z,44.28
2022-12-04T09:17:40.993Z,50.60
2022-12-04T09:20:09.770Z,55.03
2022-12-04T09:23:02.140Z,49.13
2022-12-04T10:09:02.270Z,49.85
2022-12-04T10:19:40.130Z,54.17
2022-12-04T10:22:13.203Z,77.85
2022-12-04T10:24:45.026Z,56.92
2022-12-04T10:27:13.632Z,65.28
2022-12-04T10:29:43.292Z,76.63
2022-12-04T10:32:17.661Z,42.45
2022-12-04T10:34:45.935Z,60.05
2022-12-04T10:37:14.799Z,45.20
2022-12-04T10:47:50.203Z,52.50
2022-12-04T11:22:50.541Z,52.92
2022-12-04T11:25:19.795Z,61.30
2022-12-04T11:27:47.602Z,80.03
2022-12-04T11:30:16.666Z,68.97
2022-12-04T11:32:45.325Z,74.47
2022-12-04T11:35:15.109Z,55.97
2022-12-04T11:37:45.520Z,67.00
2022-12-04T11:40:18.500Z,56.70
2022-12-04T11:42:46.008Z,63.78
2022-12-04T11:45:20.281Z,101.05
2022-12-04T11:47:54.694Z,123.32
2022-12-04T11:50:27.047Z,126.82
2022-12-04T11:53:02.473Z,65.38
2022-12-04T11:55:36.875Z,52.65
2022-12-04T11:58:15.636Z,47.95
2022-12-04T12:00:46.577Z,64.75
2022-12-04T12:03:16.546Z,49.70
2022-12-04T12:05:53.599Z,59.67
2022-12-04T12:08:27.417Z,68.80
2022-12-04T12:10:59.013Z,81.95
2022-12-04T12:13:33.433Z,55.50
2022-12-04T12:16:04.986Z,60.97
2022-12-04T12:18:41.124Z,80.28
2022-12-04T12:21:13.126Z,57.83
2022-12-04T12:23:47.279Z,95.97
2022-12-04T12:26:17.170Z,91.85
2022-12-04T12:31:18.230Z,73.30
2022-12-04T12:33:49.794Z,185.70
2022-12-04T12:36:17.186Z,124.68
2022-12-04T12:38:46.643Z,117.30
2022-12-04T12:41:14.553Z,93.97
2022-12-04T12:43:45.925Z,85.30
2022-12-04T12:46:16.008Z,88.15
2022-12-04T12:48:47.041Z,74.55
2022-12-04T12:51:29.971Z,67.32
2022-12-04T12:54:01.875Z,75.80
2022-12-04T12:56:32.180Z,57.38
2022-12-04T12:59:04.175Z,82.65
2022-12-04T13:01:39.329Z,60.58
2022-12-04T13:04:10.758Z,56.28
2022-12-04T13:06:39.311Z,43.92
2022-12-04T13:09:09.949Z,49.25
2022-12-04T13:11:37.298Z,44.67
2022-12-04T13:14:06.460Z,46.30
2022-12-04T13:16:35.726Z,45.00
2022-12-04T13:19:07.586Z,54.08
2022-12-04T13:21:36.667Z,55.40
2022-12-04T13:24:22.964Z,54.23
2022-12-04T13:26:53.453Z,49.72
2022-12-04T13:29:30.833Z,41.15
2022-12-04T13:32:03.154Z,70.10
2022-12-04T13:34:44.451Z,54.28
2022-12-04T13:37:26.565Z,53.72
2022-12-04T13:40:19.102Z,56.90
2022-12-04T13:42:46.876Z,57.65
2022-12-04T13:45:25.688Z,57.92
2022-12-04T13:47:57.197Z,54.63
2022-12-04T13:50:28.862Z,52.45
2022-12-04T13:52:56.783Z,48.03
2022-12-04T13:55:25.572Z,70.43
2022-12-04T13:57:56.225Z,54.70
2022-12-04T14:00:32.488Z,44.65
2022-12-04T14:03:01.494Z,44.67
2022-12-04T14:05:32.008Z,46.43
2022-12-04T14:08:07.541Z,45.00
2022-12-04T14:10:36.960Z,49.30
2022-12-04T14:13:06.284Z,42.20
2022-12-04T14:15:36.890Z,49.30
2022-12-04T14:18:06.199Z,41.10
2022-12-04T14:20:34.214Z,42.55
2022-12-04T14:23:08.892Z,48.22
2022-12-04T14:25:38.019Z,42.30
2022-12-04T14:28:15.717Z,46.78
2022-12-04T14:30:45.130Z,41.10
2022-12-04T14:33:17.697Z,53.33
2022-12-04T14:35:46.794Z,44.97
2022-12-04T14:38:17.660Z,44.60
2022-12-04T14:40:46.422Z,44.70
2022-12-04T14:43:17.673Z,58.22
2022-12-04T14:45:47.918Z,50.83
2022-12-04T14:48:29.528Z,48.83
2022-12-04T14:51:00.805Z,75.22
2022-12-04T14:53:35.084Z,47.70
2022-12-04T14:56:07.900Z,56.20
2022-12-04T14:58:39.954Z,43.13
2022-12-04T15:01:23.918Z,55.33
2022-12-04T15:03:57.805Z,69.80
2022-12-04T15:06:26.276Z,52.63
2022-12-04T15:09:14.707Z,50.95
2022-12-04T15:12:03.537Z,67.63
2022-12-04T15:14:39.756Z,53.10
2022-12-04T15:17:09.936Z,41.88
2022-12-04T15:19:37.392Z,44.72
2022-12-04T15:22:11.295Z,50.63
2022-12-04T15:24:39.017Z,48.85
2022-12-04T15:27:07.558Z,58.67
2022-12-04T15:29:38.022Z,48.15
2022-12-04T15:32:06.969Z,48.08
2022-12-04T15:34:38.860Z,48.47
2022-12-04T15:37:07.794Z,43.13
2022-12-04T15:39:37.151Z,40.75
2022-12-04T15:42:05.642Z,39.65
2022-12-04T15:44:36.480Z,46.50
2022-12-04T15:47:16.019Z,47.20
2022-12-04T15:49:44.801Z,42.35
2022-12-04T15:52:15.473Z,43.88
2022-12-04T15:54:43.836Z,61.38
2022-12-04T15:57:27.885Z,74.50
2022-12-04T15:59:56.111Z,68.60
2022-12-04T16:02:24.822Z,62.97
2022-12-04T16:05:07.700Z,48.53
2022-12-04T16:07:36.204Z,55.40
2022-12-04T16:10:04.549Z,52.90
2022-12-04T16:12:32.895Z,50.75
2022-12-04T16:15:00.283Z,51.35
2022-12-04T16:17:30.430Z,69.68
2022-12-04T16:19:59.593Z,55.83
2022-12-04T16:22:27.679Z,44.92
2022-12-04T16:24:56.993Z,40.97
2022-12-04T16:27:25.063Z,43.53
2022-12-04T16:29:53.176Z,40.40
2022-12-04T16:32:21.943Z,37.17
2022-12-04T16:34:49.978Z,40.42
2022-12-04T16:37:20.114Z,33.95
2022-12-04T16:39:47.520Z,38.85
2022-12-04T16:42:16.403Z,37.47
2022-12-04T16:44:43.832Z,36.83
2022-12-04T16:49:53.339Z,33.72
2022-12-04T16:52:22.379Z,35.10
2022-12-04T16:54:49.780Z,37.00
2022-12-04T16:57:17.178Z,39.20
2022-12-04T16:59:44.570Z,37.50
2022-12-04T17:02:15.325Z,33.20
2022-12-04T17:04:42.828Z,32.70
2022-12-04T17:07:10.306Z,32.38
2022-12-04T17:09:39.039Z,35.40
2022-12-04T17:12:06.540Z,32.05
2022-12-04T17:22:39.056Z,24.77
2022-12-04T17:25:08.362Z,31.75
2022-12-04T17:27:35.868Z,31.00
2022-12-04T17:30:03.344Z,30.90
2022-12-04T17:32:31.697Z,30.17
2022-12-04T17:34:59.345Z,31.50
2022-12-04T17:37:27.001Z,28.15
2022-12-04T17:39:54.510Z,32.00
2022-12-04T17:42:23.388Z,32.05
2022-12-04T17:44:50.819Z,29.40
2022-12-04T17:47:18.306Z,26.52
2022-12-04T17:49:45.880Z,31.50
2022-12-04T17:52:13.281Z,31.50
2022-12-04T17:54:40.692Z,29.23
2022-12-04T17:57:08.249Z,39.05
2022-12-04T17:59:36.983Z,31.02
2022-12-04T18:02:04.381Z,29.35
2022-12-04T18:04:31.753Z,33.30
2022-12-04T18:06:59.189Z,30.08
2022-12-04T18:09:26.568Z,34.95
2022-12-04T18:11:56.116Z,28.40
2022-12-04T18:17:06.484Z,31.23
2022-12-04T18:19:33.955Z,34.83
2022-12-04T19:20:34.123Z,34.17
2022-12-04T19:25:43.912Z,38.47
2022-12-04T19:28:11.288Z,31.38
2022-12-04T19:30:41.241Z,32.53
2022-12-04T19:35:37.244Z,27.35
2022-12-04T19:38:04.728Z,32.55
2022-12-04T19:40:34.798Z,35.25
2022-12-04T19:43:03.149Z,33.47
2022-12-04T19:45:30.845Z,36.10
2022-12-04T19:48:01.762Z,31.58
2022-12-04T19:50:29.186Z,32.80
2022-12-04T19:52:59.864Z,67.18
2022-12-04T19:55:35.834Z,40.60
2022-12-04T19:58:03.358Z,30.67
2022-12-04T20:00:33.697Z,48.42
2022-12-04T20:03:01.169Z,34.42
2022-12-04T20:05:28.697Z,47.22
2022-12-04T20:07:56.248Z,50.20
2022-12-04T20:10:24.996Z,33.25
2022-12-04T20:12:52.359Z,33.17
2022-12-04T20:15:19.747Z,37.88
2022-12-04T20:17:49.416Z,34.08
2022-12-04T20:20:16.800Z,36.55
2022-12-04T20:22:44.189Z,32.50
2022-12-04T20:25:11.602Z,37.78
2022-12-04T20:27:40.378Z,32.13
2022-12-04T20:30:08.443Z,33.60
2022-12-04T20:32:35.861Z,35.00
2022-12-04T20:35:03.227Z,34.30
2022-12-04T20:37:30.589Z,32.55
2022-12-04T20:39:58.151Z,37.45
2022-12-04T20:42:30.277Z,34.70
2022-12-04T20:45:04.107Z,38.40
2022-12-04T20:47:35.039Z,33.88
2022-12-04T20:50:02.450Z,31.02
2022-12-04T20:52:29.885Z,32.35
2022-12-04T20:54:57.283Z,32.78
2022-12-04T20:57:24.724Z,38.35
2022-12-04T20:59:52.084Z,36.67
2022-12-04T21:02:20.936Z,31.13
2022-12-04T21:04:48.412Z,36.28
2022-12-04T21:07:15.789Z,30.10
2022-12-04T21:09:43.999Z,32.25
2022-12-04T21:12:25.791Z,34.35
2022-12-04T21:15:10.998Z,36.85
2022-12-04T21:17:40.446Z,34.67
2022-12-04T21:20:08.489Z,32.25
2022-12-04T21:22:36.035Z,34.90
2022-12-04T21:25:04.110Z,34.90
2022-12-04T21:27:34.188Z,34.25
2022-12-04T21:30:02.123Z,38.45
2022-12-04T21:32:29.569Z,30.75
2022-12-04T21:35:01.495Z,31.30
2022-12-04T21:37:31.569Z,38.67
2022-12-04T21:40:00.853Z,40.45
2022-12-04T21:42:30.178Z,33.10
2022-12-04T21:44:57.650Z,41.78
2022-12-04T21:47:25.100Z,40.38
2022-12-04T21:49:52.531Z,30.88
2022-12-04T21:52:22.495Z,33.47
2022-12-04T21:57:19.932Z,25.80
2022-12-04T21:59:47.339Z,35.00
2022-12-04T22:02:15.223Z,23.40
2022-12-04T22:04:42.891Z,34.88
2022-12-04T22:07:13.319Z,31.70
2022-12-04T22:09:42.242Z,42.65
2022-12-04T22:12:41.292Z,27.65
2022-12-04T22:14:59.829Z,30.42
2022-12-04T22:17:29.789Z,29.48
2022-12-04T22:22:27.511Z,25.25
2022-12-04T22:24:56.252Z,24.85
2022-12-04T22:27:23.722Z,30.90
2022-12-04T22:29:51.591Z,27.27
2022-12-04T22:37:44.569Z,25.70
2022-12-04T22:56:25.560Z,26.42
2022-12-04T22:58:53.526Z,24.17
2022-12-04T23:03:56.328Z,28.50
2022-12-04T23:06:24.536Z,27.33
2022-12-04T23:08:54.701Z,25.77
2022-12-04T23:11:22.733Z,33.05
2022-12-04T23:16:35.220Z,23.60
2022-12-04T23:19:02.997Z,30.08
2022-12-04T23:26:53.927Z,22.60
2022-12-04T23:34:46.170Z,25.08
2022-12-04T23:39:55.006Z,32.92
2022-12-04T23:42:22.507Z,22.48
2022-12-04T23:44:49.868Z,22.35
2022-12-04T23:47:17.360Z,20.90
2022-12-04T23:49:46.187Z,20.92
2022-12-04T23:52:13.580Z,22.13
2022-12-04T23:54:41.183Z,19.48
2022-12-04T23:57:08.852Z,25.33
2022-12-04T23:59:36.259Z,18.88
